Watson, Missouri
Current Conditions -  °F | °C
As of 5:15 PM on Thursday 20 Nov 2014 (Local Time) from KAFK Reporting Station
Clear Clear  
Wind Chill: 26°   Ceiling: Unl
Heat Index: 26°   Visibility: 10mi
Dew Point: 15°   Wind: 0mph
Humidity: 66%   Direction: NA
Pressure: 30.2"   Gusts: NA
Location:  40.48°N, 95.62°W
Report Text: KAFK 202315Z AUTO 00000KT 10SM CLR M04/M09 A3020 RMK AO2 T10361092
Loading
Personal Weather Stations






























Interactive Weather Map New forecast layout! Learn more

10-Day Weather Forecast

Advertisements
Track Severe Weather on mobile